Hlavní strana
METAR-TAF:

METAR-TAF

Letiště :

North Battleford, Saskatchewan, Kanada

zeměpisná šířka: 52-46N, zeměpisná délka: 108-15W, výška: 548 m

Aktuální stav počasí

Zpráva byla vytvořena před 30 minutami, v 22:00 UTC
Západní vítr 13 kt s nárazy do 18 kt
Teplota 21°C
Vlhkost vzduchu 20%
Tlak 1015 hPa
Viditelnost: 14.5 km
Jasno

METAR: CYQW 172200Z AUTO 27013G18KT 9SM CLR 21/M03 A2998 RMK SLP166 DENSITY ALT 2800FT

Čas: 16:30 (22:30 UTC)

Předpověď počasí

Zpráva byla vytvořena před 4 hodinami a 52 minutami, v 17:38 UTC
Předpověď platná od 17 v 18 UTC do 18 v 06 UTC
Západojihozápadní vítr 10 kt
Viditelnost: 10 km
Jasno

TAF: CYQW 171738Z 1718/1806 25010KT P6SM SKC RMK FCST BASED ON AUTO OBS. NXT FCST BY 180000Z

Stav a předpovědi počasí z více než 4 000 letišť (zprávy METAR a TAF).

Červené a žluté tečky na mapě představují dostupné meteorologické stanice.

Když kurzor umístíte na tečku, zobrazí se název stanice.

Pak kliknutím zobrazíte stav a předpověď počasí.

Chcete-li změnit mapu, kliknutím na zelené tlačítko se znaménkem +mapu přiblížíte, kliknutím na zelené tlačítko se znaménkem – mapu oddálíte a kliknutím na zelené šipky přejdete na sousední mapy.


METAR-TAF: